createdAt,value
2017-11-21T00:02:00.506Z,94094.94
2017-11-21T00:04:28.252Z,94085.35
2017-11-21T00:06:56.012Z,94092.66
2017-11-21T00:09:23.687Z,94092.09
2017-11-21T00:11:52.324Z,94088.70
2017-11-21T00:14:20.071Z,94068.72
2017-11-21T00:16:47.830Z,94068.32
2017-11-21T00:19:15.557Z,94058.09
2017-11-21T00:21:43.292Z,94065.98
2017-11-21T00:24:10.996Z,94062.83
2017-11-21T00:26:38.747Z,94058.90
2017-11-21T00:29:06.492Z,94055.36
2017-11-21T00:31:34.201Z,94055.19
2017-11-21T00:34:01.875Z,94051.68
2017-11-21T00:36:29.622Z,94060.23
2017-11-21T00:38:57.295Z,94046.77
2017-11-21T00:41:25.165Z,94043.73
2017-11-21T00:43:52.834Z,94040.92
2017-11-21T00:46:20.580Z,94034.95
2017-11-21T00:48:48.525Z,94034.91
2017-11-21T00:51:16.264Z,94033.27
2017-11-21T00:53:43.953Z,94031.19
2017-11-21T00:56:11.688Z,94033.23
2017-11-21T00:58:39.408Z,94026.98
2017-11-21T01:01:07.155Z,94033.59
2017-11-21T01:03:34.938Z,94034.31
2017-11-21T01:06:02.617Z,94039.45
2017-11-21T01:08:30.340Z,94034.94
2017-11-21T01:10:58.035Z,94034.11
2017-11-21T01:13:25.819Z,94038.36
2017-11-21T01:15:53.509Z,94045.76
2017-11-21T01:18:21.293Z,94040.55
2017-11-21T01:20:49.058Z,94042.71
2017-11-21T01:23:16.758Z,94043.72
2017-11-21T01:25:44.954Z,94030.05
2017-11-21T01:28:12.683Z,94043.61
2017-11-21T01:30:40.449Z,94036.91
2017-11-21T01:33:08.215Z,94032.67
2017-11-21T01:35:35.919Z,94037.80
2017-11-21T01:38:03.707Z,94031.19
2017-11-21T01:40:31.425Z,94021.24
2017-11-21T01:42:59.178Z,94031.07
2017-11-21T01:45:26.939Z,94029.39
2017-11-21T01:47:54.688Z,94028.02
2017-11-21T01:50:22.419Z,94032.31
2017-11-21T01:52:50.094Z,94028.14
2017-11-21T01:55:17.826Z,94026.33
2017-11-21T01:57:45.537Z,94022.00
2017-11-21T02:00:13.217Z,94013.91
2017-11-21T02:02:40.996Z,94014.23
2017-11-21T02:05:08.680Z,94011.67
2017-11-21T02:07:36.405Z,94004.92
2017-11-21T02:10:04.133Z,94016.91
2017-11-21T02:12:31.829Z,94019.64
2017-11-21T02:14:59.641Z,94027.59
2017-11-21T02:17:27.342Z,94021.02
2017-11-21T02:19:55.137Z,94021.75
2017-11-21T02:22:22.968Z,94020.66
2017-11-21T02:24:50.734Z,94021.91
2017-11-21T02:27:18.504Z,94021.77
2017-11-21T02:29:46.308Z,94012.44
2017-11-21T02:32:14.055Z,94007.25
2017-11-21T02:34:41.773Z,94014.75
2017-11-21T02:37:09.524Z,94017.09
2017-11-21T02:39:37.192Z,94018.91
2017-11-21T02:42:04.968Z,94012.25
2017-11-21T02:44:32.895Z,94003.25
2017-11-21T02:47:01.708Z,94012.91
2017-11-21T02:49:29.474Z,94006.09
2017-11-21T02:51:57.432Z,93998.26
2017-11-21T02:54:25.176Z,93996.02
2017-11-21T02:56:52.921Z,94004.50
2017-11-21T02:59:20.659Z,93997.92
2017-11-21T03:01:48.423Z,93992.16
2017-11-21T03:04:16.077Z,93994.86
2017-11-21T03:06:43.793Z,93998.03
2017-11-21T03:09:11.549Z,93992.95
2017-11-21T03:11:39.349Z,93995.58
2017-11-21T03:14:07.105Z,94007.00
2017-11-21T03:16:34.820Z,93999.23
2017-11-21T03:19:02.599Z,94000.93
2017-11-21T03:21:42.047Z,94000.91
2017-11-21T03:24:21.453Z,93993.67
2017-11-21T03:26:49.315Z,93997.52
2017-11-21T03:29:17.186Z,93995.38
2017-11-21T03:31:44.860Z,94002.08
2017-11-21T03:34:12.557Z,93997.52
2017-11-21T03:36:40.319Z,94007.15
2017-11-21T03:39:08.053Z,94002.80
2017-11-21T03:41:35.823Z,94008.73
2017-11-21T03:44:03.540Z,94009.73
2017-11-21T03:46:31.407Z,94007.20
2017-11-21T03:48:59.196Z,94014.49
2017-11-21T03:51:26.936Z,93998.17
2017-11-21T03:53:54.605Z,93999.44
2017-11-21T03:56:22.291Z,93998.62
2017-11-21T03:58:50.060Z,94011.84
2017-11-21T04:01:17.740Z,93994.72
2017-11-21T04:03:45.460Z,93999.44
2017-11-21T04:06:13.279Z,93999.84
2017-11-21T04:08:41.026Z,94012.80
2017-11-21T04:11:08.783Z,94014.88
2017-11-21T04:13:36.694Z,94009.33
2017-11-21T04:16:04.440Z,94008.94
2017-11-21T04:18:32.111Z,94011.35
2017-11-21T04:20:59.805Z,93998.33
2017-11-21T04:23:27.569Z,94001.20
2017-11-21T04:25:55.311Z,93993.61
2017-11-21T04:28:23.033Z,93994.69
2017-11-21T04:30:50.751Z,93996.61
2017-11-21T04:33:18.529Z,93988.94
2017-11-21T04:35:46.208Z,93987.58
2017-11-21T04:38:13.981Z,93988.83
2017-11-21T04:40:41.736Z,93987.27
2017-11-21T04:43:09.431Z,93987.75
2017-11-21T04:45:37.177Z,93979.23
2017-11-21T04:48:04.932Z,93988.86
2017-11-21T04:50:32.598Z,93983.66
2017-11-21T04:53:00.334Z,93983.02
2017-11-21T04:55:28.236Z,93990.23
2017-11-21T04:57:55.932Z,93992.82
2017-11-21T05:00:23.740Z,93989.49
2017-11-21T05:02:51.604Z,93985.53
2017-11-21T05:05:19.309Z,93987.75
2017-11-21T05:07:47.002Z,93981.48
2017-11-21T05:10:14.724Z,93982.38
2017-11-21T05:12:42.414Z,93990.14
2017-11-21T05:15:10.148Z,93996.23
2017-11-21T05:17:37.842Z,93987.50
2017-11-21T05:20:05.609Z,93990.38
2017-11-21T05:22:33.412Z,93990.80
2017-11-21T05:25:01.193Z,93987.41
2017-11-21T05:27:28.947Z,93995.05
2017-11-21T05:29:56.728Z,93993.84
2017-11-21T05:35:30.442Z,93999.54
2017-11-21T05:37:58.184Z,93995.78
2017-11-21T05:40:25.952Z,93988.70
2017-11-21T05:42:53.672Z,93997.77
2017-11-21T05:45:21.399Z,93994.81
2017-11-21T05:47:49.106Z,93998.72
2017-11-21T05:50:17.795Z,94000.83
2017-11-21T05:52:45.600Z,94002.48
2017-11-21T05:55:13.306Z,94008.59
2017-11-21T05:57:41.124Z,94011.19
2017-11-21T06:00:08.894Z,94017.73
2017-11-21T06:02:36.581Z,94020.76
2017-11-21T06:05:04.312Z,94015.63
2017-11-21T06:07:32.014Z,94020.36
2017-11-21T06:09:59.765Z,94036.48
2017-11-21T06:12:27.786Z,94027.05
2017-11-21T06:14:55.464Z,94026.74
2017-11-21T06:17:23.222Z,94028.19
2017-11-21T06:19:50.964Z,94030.05
2017-11-21T06:22:18.732Z,94032.37
2017-11-21T06:24:46.469Z,94033.17
2017-11-21T06:27:14.173Z,94031.89
2017-11-21T06:29:42.193Z,94033.00
2017-11-21T06:32:09.964Z,94045.10
2017-11-21T06:34:37.679Z,94050.28
2017-11-21T06:37:05.421Z,94050.55
2017-11-21T06:39:33.098Z,94052.09
2017-11-21T06:42:00.833Z,94054.72
2017-11-21T06:44:28.522Z,94062.42
2017-11-21T06:46:56.273Z,94057.53
2017-11-21T06:49:23.992Z,94056.63
2017-11-21T06:51:51.697Z,94051.41
2017-11-21T06:54:19.435Z,94068.67
2017-11-21T06:56:47.187Z,94056.91
2017-11-21T06:59:14.927Z,94062.73
2017-11-21T07:01:42.615Z,94058.66
2017-11-21T07:04:10.340Z,94057.32
2017-11-21T07:06:38.816Z,94061.54
2017-11-21T07:09:06.586Z,94055.81
2017-11-21T07:11:34.307Z,94066.77
2017-11-21T07:14:02.099Z,94063.31
2017-11-21T07:16:29.794Z,94065.70
2017-11-21T07:18:57.563Z,94068.41
2017-11-21T07:21:25.268Z,94068.78
2017-11-21T07:23:53.005Z,94069.27
2017-11-21T07:26:20.760Z,94079.76
2017-11-21T07:28:48.491Z,94067.30
2017-11-21T07:31:16.277Z,94084.09
2017-11-21T07:33:43.983Z,94083.43
2017-11-21T07:36:11.722Z,94079.98
2017-11-21T07:38:39.372Z,94085.13
2017-11-21T07:41:07.163Z,94088.72
2017-11-21T07:43:34.865Z,94096.57
2017-11-21T07:46:02.684Z,94102.61
2017-11-21T07:48:30.450Z,94100.09
2017-11-21T07:50:59.202Z,94101.24
2017-11-21T07:53:27.001Z,94100.06
2017-11-21T07:55:54.868Z,94103.23
2017-11-21T07:58:22.616Z,94103.13
2017-11-21T08:00:50.370Z,94105.48
2017-11-21T08:03:18.093Z,94101.06
2017-11-21T08:05:45.798Z,94105.25
2017-11-21T08:08:13.548Z,94113.75
2017-11-21T08:10:41.339Z,94102.75
2017-11-21T08:13:09.127Z,94106.28
2017-11-21T08:15:36.901Z,94096.85
2017-11-21T08:18:04.654Z,94089.32
2017-11-21T08:20:32.389Z,94092.46
2017-11-21T08:23:00.112Z,94086.69
2017-11-21T08:25:27.846Z,94090.17
2017-11-21T08:27:55.572Z,94089.14
2017-11-21T08:30:23.373Z,94098.89
2017-11-21T08:32:51.050Z,94097.52
2017-11-21T08:35:18.769Z,94103.09
2017-11-21T08:37:46.518Z,94095.44
2017-11-21T08:40:14.290Z,94087.53
2017-11-21T08:42:41.987Z,94088.97
2017-11-21T08:45:09.715Z,94090.52
2017-11-21T08:47:37.773Z,94091.53
2017-11-21T08:50:05.487Z,94094.33
2017-11-21T08:52:33.236Z,94092.95
2017-11-21T08:55:01.045Z,94102.03
2017-11-21T08:57:28.795Z,94095.17
2017-11-21T08:59:56.605Z,94096.54
2017-11-21T09:02:24.329Z,94097.80
2017-11-21T09:04:52.818Z,94099.32
2017-11-21T09:07:20.658Z,94093.84
2017-11-21T09:09:48.406Z,94107.31
2017-11-21T09:12:16.187Z,94103.06
2017-11-21T09:14:43.874Z,94114.95
2017-11-21T09:17:11.600Z,94108.92
2017-11-21T09:19:39.320Z,94113.23
2017-11-21T09:22:07.047Z,94115.74
2017-11-21T09:24:34.735Z,94130.45
2017-11-21T09:27:03.699Z,94130.05
2017-11-21T09:29:31.548Z,94129.62
2017-11-21T09:31:59.232Z,94125.77
2017-11-21T09:34:26.936Z,94126.47
2017-11-21T09:36:54.683Z,94119.54
2017-11-21T09:39:22.441Z,94126.71
2017-11-21T09:41:50.249Z,94132.72
2017-11-21T09:44:18.004Z,94127.88
2017-11-21T09:46:45.724Z,94126.41
2017-11-21T09:49:13.452Z,94118.06
2017-11-21T09:51:41.147Z,94119.55
2017-11-21T09:54:08.912Z,94106.11
2017-11-21T09:56:36.713Z,94110.01
2017-11-21T09:59:04.411Z,94109.54
2017-11-21T10:01:32.118Z,94112.20
2017-11-21T10:03:59.783Z,94117.98
2017-11-21T10:06:27.545Z,94109.91
2017-11-21T10:08:55.246Z,94114.70
2017-11-21T10:11:22.963Z,94102.17
2017-11-21T10:13:50.720Z,94109.03
2017-11-21T10:16:18.499Z,94108.74
2017-11-21T10:18:46.266Z,94108.48
2017-11-21T10:21:13.982Z,94098.07
2017-11-21T10:23:41.734Z,94096.82
2017-11-21T10:26:09.514Z,94095.98
2017-11-21T10:28:37.309Z,94082.72
2017-11-21T10:31:05.132Z,94074.30
2017-11-21T10:33:32.908Z,94074.00
2017-11-21T10:36:00.592Z,94069.55
2017-11-21T10:38:28.386Z,94070.10
2017-11-21T10:40:56.100Z,94063.23
2017-11-21T10:43:23.849Z,94068.99
2017-11-21T10:45:51.676Z,94060.72
2017-11-21T10:48:19.380Z,94062.34
2017-11-21T10:50:47.117Z,94062.01
2017-11-21T10:53:14.869Z,94059.14
2017-11-21T10:55:42.631Z,94055.59
2017-11-21T10:58:10.361Z,94057.38
2017-11-21T11:00:38.146Z,94051.91
2017-11-21T11:03:05.915Z,94041.50
2017-11-21T11:05:33.747Z,94040.73
2017-11-21T11:08:01.533Z,94041.83
2017-11-21T11:10:29.707Z,94038.86
2017-11-21T11:12:57.487Z,94039.14
2017-11-21T11:15:25.207Z,94047.41
2017-11-21T11:17:53.005Z,94046.84
2017-11-21T11:20:20.785Z,94042.87
2017-11-21T11:22:48.600Z,94042.61
2017-11-21T11:25:16.652Z,94035.15
2017-11-21T11:27:44.506Z,94040.30
2017-11-21T11:30:12.818Z,94034.06
2017-11-21T11:32:40.599Z,94033.84
2017-11-21T11:35:08.360Z,94033.42
2017-11-21T11:37:36.220Z,94034.73
2017-11-21T11:40:04.031Z,94039.17
2017-11-21T11:42:31.825Z,94039.28
2017-11-21T11:44:59.577Z,94031.95
2017-11-21T11:47:27.625Z,94040.78
2017-11-21T11:49:55.490Z,94032.56
2017-11-21T11:52:23.261Z,94023.87
2017-11-21T11:54:51.100Z,94031.39
2017-11-21T11:57:18.874Z,94037.23
2017-11-21T11:59:46.692Z,94036.95
2017-11-21T12:02:14.743Z,94042.85
2017-11-21T12:04:42.582Z,94037.43
2017-11-21T12:07:10.398Z,94042.50
2017-11-21T12:09:38.259Z,94042.06
2017-11-21T12:12:06.172Z,94047.78
2017-11-21T12:14:34.025Z,94040.09
2017-11-21T12:17:01.935Z,94048.33
2017-11-21T12:19:29.736Z,94043.58
2017-11-21T12:21:57.497Z,94045.53
2017-11-21T12:24:25.397Z,94045.28
2017-11-21T12:26:53.295Z,94054.44
2017-11-21T12:29:21.189Z,94051.16
2017-11-21T12:31:49.028Z,94045.71
2017-11-21T12:34:16.898Z,94046.88
2017-11-21T12:36:44.772Z,94051.03
2017-11-21T12:39:12.638Z,94049.99
2017-11-21T12:41:40.424Z,94047.77
2017-11-21T12:44:08.267Z,94048.28
2017-11-21T12:46:36.025Z,94060.78
2017-11-21T12:49:03.804Z,94061.17
2017-11-21T12:51:31.575Z,94050.78
2017-11-21T12:53:59.394Z,94049.77
2017-11-21T12:56:27.413Z,94054.03
2017-11-21T12:58:55.334Z,94053.59
2017-11-21T13:01:23.231Z,94045.69
2017-11-21T13:03:51.190Z,94044.64
2017-11-21T13:06:19.039Z,94045.98
2017-11-21T13:08:47.896Z,94043.88
2017-11-21T13:11:16.033Z,94040.86
2017-11-21T13:13:43.839Z,94031.70
2017-11-21T13:16:11.840Z,94038.36
2017-11-21T13:18:39.734Z,94042.05
2017-11-21T13:21:08.144Z,94050.86
2017-11-21T13:23:36.034Z,94056.82
2017-11-21T13:26:03.819Z,94049.83
2017-11-21T13:28:31.718Z,94048.26
2017-11-21T13:30:59.646Z,94053.03
2017-11-21T13:33:27.458Z,94049.34
2017-11-21T13:35:55.318Z,94045.82
2017-11-21T13:38:23.231Z,94047.02
2017-11-21T13:40:51.053Z,94061.34
2017-11-21T13:43:18.859Z,94054.91
2017-11-21T13:45:46.658Z,94058.33
2017-11-21T13:48:14.474Z,94060.05
2017-11-21T13:50:42.396Z,94060.54
2017-11-21T13:53:10.214Z,94063.58
2017-11-21T13:55:38.159Z,94070.87
2017-11-21T13:58:06.019Z,94068.81
2017-11-21T14:00:33.808Z,94064.53
2017-11-21T14:03:02.466Z,94066.06
2017-11-21T14:05:30.262Z,94060.42
2017-11-21T14:07:58.072Z,94068.94
2017-11-21T14:10:25.940Z,94064.19
2017-11-21T14:12:53.719Z,94064.19
2017-11-21T14:15:21.637Z,94070.63
2017-11-21T14:17:49.614Z,94063.36
2017-11-21T14:20:17.562Z,94064.83
2017-11-21T14:22:45.434Z,94062.96
2017-11-21T14:25:13.309Z,94068.59
2017-11-21T14:27:41.252Z,94070.07
2017-11-21T14:30:09.071Z,94069.77
2017-11-21T14:32:36.974Z,94060.47
2017-11-21T14:35:04.830Z,94065.36
2017-11-21T14:37:32.658Z,94063.63
2017-11-21T14:40:00.432Z,94067.14
2017-11-21T14:42:28.176Z,94056.45
2017-11-21T14:44:55.925Z,94073.75
2017-11-21T14:47:23.717Z,94066.48
2017-11-21T14:49:51.552Z,94065.61
2017-11-21T14:52:19.341Z,94062.52
2017-11-21T14:54:47.163Z,94068.91
2017-11-21T14:57:14.927Z,94063.09
2017-11-21T14:59:42.703Z,94070.81
2017-11-21T15:02:10.483Z,94073.13
2017-11-21T15:04:38.268Z,94072.66
2017-11-21T15:07:06.154Z,94068.63
2017-11-21T15:09:34.061Z,94068.19
2017-11-21T15:12:01.834Z,94071.82
2017-11-21T15:14:30.107Z,94065.67
2017-11-21T15:16:57.969Z,94069.74
2017-11-21T15:19:25.741Z,94074.22
2017-11-21T15:21:53.627Z,94080.97
2017-11-21T15:24:22.165Z,94079.03
2017-11-21T15:26:49.967Z,94076.94
2017-11-21T15:29:18.812Z,94085.72
2017-11-21T15:31:46.945Z,94080.98
2017-11-21T15:34:14.718Z,94084.25
2017-11-21T15:36:42.577Z,94080.75
2017-11-21T15:39:10.310Z,94073.53
2017-11-21T15:41:38.114Z,94072.82
2017-11-21T15:44:05.952Z,94071.94
2017-11-21T15:46:33.698Z,94082.34
2017-11-21T15:49:01.439Z,94080.44
2017-11-21T15:51:29.257Z,94077.47
2017-11-21T15:53:57.083Z,94083.80
2017-11-21T15:56:24.867Z,94082.83
2017-11-21T15:58:52.669Z,94079.16
2017-11-21T16:01:20.542Z,94082.52
2017-11-21T16:03:48.385Z,94080.13
2017-11-21T16:06:16.193Z,94076.38
2017-11-21T16:08:44.022Z,94076.95
2017-11-21T16:11:11.893Z,94071.13
2017-11-21T16:13:39.661Z,94061.20
2017-11-21T16:16:07.702Z,94063.59
2017-11-21T16:18:36.688Z,94062.44
2017-11-21T16:21:04.529Z,94054.74
2017-11-21T16:23:32.277Z,94061.83
2017-11-21T16:26:00.076Z,94059.74
2017-11-21T16:28:28.768Z,94065.10
2017-11-21T16:30:56.589Z,94068.73
2017-11-21T16:33:24.322Z,94072.98
2017-11-21T16:35:52.067Z,94068.59
2017-11-21T16:38:19.906Z,94065.36
2017-11-21T16:40:47.628Z,94067.62
2017-11-21T16:43:15.502Z,94071.16
2017-11-21T16:45:43.243Z,94067.40
2017-11-21T16:48:11.001Z,94065.84
2017-11-21T16:50:38.863Z,94067.53
2017-11-21T16:53:06.660Z,94069.92
2017-11-21T16:55:34.586Z,94079.72
2017-11-21T16:58:02.367Z,94071.05
2017-11-21T17:00:30.174Z,94072.99
2017-11-21T17:02:58.980Z,94071.80
2017-11-21T17:05:27.015Z,94064.40
2017-11-21T17:07:55.994Z,94067.75
2017-11-21T17:10:23.784Z,94061.69
2017-11-21T17:12:51.578Z,94065.76
2017-11-21T17:15:19.710Z,94061.81
2017-11-21T17:17:47.607Z,94065.84
2017-11-21T17:20:15.525Z,94061.91
2017-11-21T17:22:43.376Z,94065.05
2017-11-21T17:25:11.215Z,94065.77
2017-11-21T17:27:40.042Z,94072.48
2017-11-21T17:30:08.047Z,94065.31
2017-11-21T17:32:35.849Z,94078.29
2017-11-21T17:35:03.582Z,94075.81
2017-11-21T17:37:31.381Z,94091.85
2017-11-21T17:40:02.220Z,94087.11
2017-11-21T17:42:30.072Z,94084.67
2017-11-21T17:44:58.702Z,94091.17
2017-11-21T17:47:27.220Z,94110.80
2017-11-21T17:49:55.006Z,94110.23
2017-11-21T17:52:22.769Z,94110.05
2017-11-21T17:54:50.571Z,94115.01
2017-11-21T17:57:18.429Z,94111.47
2017-11-21T17:59:46.787Z,94114.09
2017-11-21T18:02:14.662Z,94117.10
2017-11-21T18:04:42.492Z,94116.66
2017-11-21T18:07:11.363Z,94115.45
2017-11-21T18:09:40.146Z,94116.03
2017-11-21T18:12:07.981Z,94116.52
2017-11-21T18:14:35.794Z,94106.63
2017-11-21T18:17:03.652Z,94111.61
2017-11-21T18:19:31.457Z,94111.52
2017-11-21T18:21:59.304Z,94108.55
2017-11-21T18:24:27.056Z,94097.26
2017-11-21T18:26:54.827Z,94091.61
2017-11-21T18:29:22.708Z,94093.16
2017-11-21T18:31:50.577Z,94091.41
2017-11-21T18:34:18.416Z,94081.16
2017-11-21T18:36:46.156Z,94085.11
2017-11-21T18:39:13.861Z,94085.24
2017-11-21T18:41:41.756Z,94084.27
2017-11-21T18:44:09.540Z,94079.19
2017-11-21T18:46:37.872Z,94078.11
2017-11-21T18:49:07.680Z,94070.56
2017-11-21T18:51:35.726Z,94083.09
2017-11-21T18:54:03.740Z,94085.36
2017-11-21T18:56:31.634Z,94091.91
2017-11-21T18:58:59.525Z,94091.28
2017-11-21T19:01:27.330Z,94097.21
2017-11-21T19:03:55.352Z,94096.73
2017-11-21T19:06:23.179Z,94102.22
2017-11-21T19:08:51.780Z,94105.75
2017-11-21T19:11:19.801Z,94100.66
2017-11-21T19:13:47.657Z,94099.47
2017-11-21T19:16:16.402Z,94101.77
2017-11-21T19:18:44.147Z,94106.95
2017-11-21T19:21:12.096Z,94113.31
2017-11-21T19:23:41.071Z,94108.22
2017-11-21T19:26:09.406Z,94114.02
2017-11-21T19:28:37.135Z,94112.84
2017-11-21T19:31:04.959Z,94107.55
2017-11-21T19:33:32.960Z,94106.11
2017-11-21T19:36:03.482Z,94108.20
2017-11-21T19:38:31.385Z,94121.47
2017-11-21T19:40:59.253Z,94122.80
2017-11-21T19:43:26.956Z,94132.81
2017-11-21T19:45:55.047Z,94127.05
2017-11-21T19:48:23.437Z,94126.38
2017-11-21T19:50:51.391Z,94122.14
2017-11-21T19:53:19.499Z,94118.92
2017-11-21T19:55:47.421Z,94131.84
2017-11-21T19:58:15.666Z,94126.97
2017-11-21T20:00:43.608Z,94123.17
2017-11-21T20:03:11.566Z,94122.62
2017-11-21T20:05:39.641Z,94125.37
2017-11-21T20:08:08.350Z,94117.46
2017-11-21T20:10:36.227Z,94120.69
2017-11-21T20:13:04.738Z,94116.66
2017-11-21T20:15:32.509Z,94126.14
2017-11-21T20:18:00.273Z,94110.71
2017-11-21T20:20:28.259Z,94126.38
2017-11-21T20:22:56.269Z,94122.00
2017-11-21T20:25:25.938Z,94123.99
2017-11-21T20:27:55.615Z,94126.19
2017-11-21T20:30:24.821Z,94126.81
2017-11-21T20:32:52.774Z,94118.75
2017-11-21T20:35:20.541Z,94125.39
2017-11-21T20:37:48.389Z,94121.86
2017-11-21T20:40:16.182Z,94116.66
2017-11-21T20:42:43.957Z,94114.95
2017-11-21T20:45:12.141Z,94124.16
2017-11-21T20:47:41.181Z,94128.30
2017-11-21T20:50:09.034Z,94120.38
2017-11-21T20:52:36.762Z,94117.95
2017-11-21T20:55:04.621Z,94121.06
2017-11-21T20:57:32.541Z,94125.94
2017-11-21T21:00:00.417Z,94124.00
2017-11-21T21:02:28.282Z,94132.44
2017-11-21T21:04:56.037Z,94138.25
2017-11-21T21:07:23.825Z,94143.67
2017-11-21T21:09:51.586Z,94142.22
2017-11-21T21:12:19.324Z,94144.25
2017-11-21T21:14:47.206Z,94137.09
2017-11-21T21:17:15.108Z,94133.33
2017-11-21T21:19:44.992Z,94139.22
2017-11-21T21:22:12.785Z,94133.92
2017-11-21T21:24:40.550Z,94142.50
2017-11-21T21:30:08.483Z,94145.63
2017-11-21T21:32:36.212Z,94154.49
2017-11-21T21:35:03.908Z,94158.18
2017-11-21T21:37:31.567Z,94151.19
2017-11-21T21:39:59.304Z,94159.30
2017-11-21T21:42:27.002Z,94151.14
2017-11-21T21:44:54.677Z,94149.26
2017-11-21T21:47:22.432Z,94156.78
2017-11-21T21:49:50.135Z,94150.39
2017-11-21T21:52:17.935Z,94147.09
2017-11-21T21:54:45.779Z,94149.00
2017-11-21T21:57:13.683Z,94142.09
2017-11-21T21:59:41.388Z,94141.66
2017-11-21T22:02:09.078Z,94139.31
2017-11-21T22:04:36.832Z,94129.78
2017-11-21T22:07:04.581Z,94136.69
2017-11-21T22:09:33.384Z,94128.39
2017-11-21T22:12:01.255Z,94129.78
2017-11-21T22:14:28.963Z,94126.31
2017-11-21T22:16:56.712Z,94125.53
2017-11-21T22:19:24.444Z,94134.34
2017-11-21T22:21:52.172Z,94131.85
2017-11-21T22:24:19.949Z,94134.05
2017-11-21T22:26:47.679Z,94137.84
2017-11-21T22:29:15.414Z,94137.67
2017-11-21T22:31:43.162Z,94142.83
2017-11-21T22:34:10.873Z,94141.08
2017-11-21T22:36:38.631Z,94149.23
2017-11-21T22:39:06.329Z,94148.52
2017-11-21T22:41:34.143Z,94142.25
2017-11-21T22:44:01.860Z,94149.41
2017-11-21T22:46:29.570Z,94143.14
2017-11-21T22:48:57.397Z,94152.38
2017-11-21T22:51:25.146Z,94142.74
2017-11-21T22:53:52.987Z,94140.18
2017-11-21T22:56:20.855Z,94146.27
2017-11-21T22:58:48.611Z,94142.95
2017-11-21T23:01:16.420Z,94144.40
2017-11-21T23:03:44.185Z,94132.00
2017-11-21T23:06:11.894Z,94142.32
2017-11-21T23:08:39.631Z,94146.19
2017-11-21T23:11:07.307Z,94138.64
2017-11-21T23:13:35.010Z,94136.83
2017-11-21T23:16:02.973Z,94132.03
2017-11-21T23:18:30.673Z,94135.08
2017-11-21T23:20:58.352Z,94147.08
2017-11-21T23:23:26.090Z,94136.72
2017-11-21T23:25:53.813Z,94143.74
2017-11-21T23:28:21.541Z,94137.16
2017-11-21T23:30:49.316Z,94129.03
2017-11-21T23:33:17.060Z,94134.39
2017-11-21T23:35:44.892Z,94122.25
2017-11-21T23:38:12.597Z,94118.59
2017-11-21T23:40:40.301Z,94125.37
2017-11-21T23:43:08.078Z,94120.39
2017-11-21T23:45:35.830Z,94112.30
2017-11-21T23:48:03.609Z,94118.98
2017-11-21T23:50:31.343Z,94113.20
2017-11-21T23:52:59.102Z,94115.56
2017-11-21T23:55:26.786Z,94120.52
2017-11-21T23:57:55.647Z,94110.94
